sensor_id;sensor_type;location;lat;lon;timestamp;P1;durP1;ratioP1;P2;durP2;ratioP2
41685;SDS011;27370;42.764;23.432;2022-08-25T00:01:33;23.92;;;9.23;;
41685;SDS011;27370;42.764;23.432;2022-08-25T00:04:02;23.25;;;9.38;;
41685;SDS011;27370;42.764;23.432;2022-08-25T00:06:29;24.10;;;9.00;;
41685;SDS011;27370;42.764;23.432;2022-08-25T00:08:55;20.25;;;8.93;;
41685;SDS011;27370;42.764;23.432;2022-08-25T00:11:24;28.50;;;9.77;;
41685;SDS011;27370;42.764;23.432;2022-08-25T00:13:53;22.17;;;8.75;;
41685;SDS011;27370;42.764;23.432;2022-08-25T00:16:22;26.38;;;8.70;;
41685;SDS011;27370;42.764;23.432;2022-08-25T00:18:49;21.92;;;8.93;;
41685;SDS011;27370;42.764;23.432;2022-08-25T00:21:19;24.30;;;8.68;;
41685;SDS011;27370;42.764;23.432;2022-08-25T00:23:45;19.00;;;8.07;;
41685;SDS011;27370;42.764;23.432;2022-08-25T00:26:12;21.42;;;9.10;;
41685;SDS011;27370;42.764;23.432;2022-08-25T00:28:38;27.73;;;9.52;;
41685;SDS011;27370;42.764;23.432;2022-08-25T00:31:04;25.17;;;9.05;;
41685;SDS011;27370;42.764;23.432;2022-08-25T00:33:31;22.50;;;9.55;;
41685;SDS011;27370;42.764;23.432;2022-08-25T00:35:57;24.23;;;9.75;;
41685;SDS011;27370;42.764;23.432;2022-08-25T00:38:24;23.13;;;9.57;;
41685;SDS011;27370;42.764;23.432;2022-08-25T00:40:50;20.83;;;9.32;;
41685;SDS011;27370;42.764;23.432;2022-08-25T00:46:28;23.23;;;9.93;;
41685;SDS011;27370;42.764;23.432;2022-08-25T00:48:59;20.67;;;9.25;;
41685;SDS011;27370;42.764;23.432;2022-08-25T00:51:41;25.98;;;9.10;;
41685;SDS011;27370;42.764;23.432;2022-08-25T00:54:14;23.30;;;8.88;;
41685;SDS011;27370;42.764;23.432;2022-08-25T00:56:43;22.90;;;9.35;;
41685;SDS011;27370;42.764;23.432;2022-08-25T00:59:10;21.48;;;10.02;;
41685;SDS011;27370;42.764;23.432;2022-08-25T01:01:36;24.70;;;10.05;;
41685;SDS011;27370;42.764;23.432;2022-08-25T01:04:02;27.17;;;9.68;;
41685;SDS011;27370;42.764;23.432;2022-08-25T01:06:28;20.85;;;9.27;;
41685;SDS011;27370;42.764;23.432;2022-08-25T01:08:57;22.67;;;10.67;;
41685;SDS011;27370;42.764;23.432;2022-08-25T01:11:22;22.17;;;11.52;;
41685;SDS011;27370;42.764;23.432;2022-08-25T01:13:50;24.25;;;9.65;;
41685;SDS011;27370;42.764;23.432;2022-08-25T01:16:18;28.25;;;11.18;;
41685;SDS011;27370;42.764;23.432;2022-08-25T01:18:49;20.38;;;10.27;;
41685;SDS011;27370;42.764;23.432;2022-08-25T01:21:18;24.42;;;10.75;;
41685;SDS011;27370;42.764;23.432;2022-08-25T01:23:46;21.85;;;10.63;;
41685;SDS011;27370;42.764;23.432;2022-08-25T01:26:14;23.90;;;11.90;;
41685;SDS011;27370;42.764;23.432;2022-08-25T01:28:47;26.50;;;11.38;;
41685;SDS011;27370;42.764;23.432;2022-08-25T01:31:32;23.45;;;12.43;;
41685;SDS011;27370;42.764;23.432;2022-08-25T01:33:59;24.00;;;12.20;;
41685;SDS011;27370;42.764;23.432;2022-08-25T01:36:26;23.70;;;12.35;;
41685;SDS011;27370;42.764;23.432;2022-08-25T01:38:52;25.23;;;11.63;;
41685;SDS011;27370;42.764;23.432;2022-08-25T01:41:25;24.52;;;11.15;;
41685;SDS011;27370;42.764;23.432;2022-08-25T01:43:55;30.60;;;11.73;;
41685;SDS011;27370;42.764;23.432;2022-08-25T01:46:21;19.67;;;11.38;;
41685;SDS011;27370;42.764;23.432;2022-08-25T01:48:47;25.40;;;11.98;;
41685;SDS011;27370;42.764;23.432;2022-08-25T01:51:13;24.95;;;11.50;;
41685;SDS011;27370;42.764;23.432;2022-08-25T01:53:40;25.95;;;12.52;;
41685;SDS011;27370;42.764;23.432;2022-08-25T01:56:12;27.27;;;12.77;;
41685;SDS011;27370;42.764;23.432;2022-08-25T01:58:41;23.55;;;12.32;;
41685;SDS011;27370;42.764;23.432;2022-08-25T02:01:10;25.90;;;12.10;;
41685;SDS011;27370;42.764;23.432;2022-08-25T02:03:40;26.33;;;12.85;;
41685;SDS011;27370;42.764;23.432;2022-08-25T02:06:09;23.95;;;12.60;;
41685;SDS011;27370;42.764;23.432;2022-08-25T02:08:36;26.63;;;12.95;;
41685;SDS011;27370;42.764;23.432;2022-08-25T02:11:02;21.77;;;12.05;;
41685;SDS011;27370;42.764;23.432;2022-08-25T02:13:28;22.20;;;11.75;;
41685;SDS011;27370;42.764;23.432;2022-08-25T02:15:54;27.67;;;11.93;;
41685;SDS011;27370;42.764;23.432;2022-08-25T02:18:21;26.63;;;12.20;;
41685;SDS011;27370;42.764;23.432;2022-08-25T02:20:47;26.55;;;11.90;;
41685;SDS011;27370;42.764;23.432;2022-08-25T02:23:13;26.30;;;11.48;;
41685;SDS011;27370;42.764;23.432;2022-08-25T02:25:40;26.70;;;12.30;;
41685;SDS011;27370;42.764;23.432;2022-08-25T02:28:06;21.42;;;11.25;;
41685;SDS011;27370;42.764;23.432;2022-08-25T02:30:33;20.23;;;10.43;;
41685;SDS011;27370;42.764;23.432;2022-08-25T02:33:00;21.40;;;11.00;;
41685;SDS011;27370;42.764;23.432;2022-08-25T02:35:25;25.42;;;10.85;;
41685;SDS011;27370;42.764;23.432;2022-08-25T02:37:51;23.95;;;10.98;;
41685;SDS011;27370;42.764;23.432;2022-08-25T02:40:17;26.30;;;11.48;;
41685;SDS011;27370;42.764;23.432;2022-08-25T02:42:45;23.88;;;11.38;;
41685;SDS011;27370;42.764;23.432;2022-08-25T02:45:11;22.40;;;12.15;;
41685;SDS011;27370;42.764;23.432;2022-08-25T02:47:36;28.55;;;12.20;;
41685;SDS011;27370;42.764;23.432;2022-08-25T02:50:03;23.98;;;11.43;;
41685;SDS011;27370;42.764;23.432;2022-08-25T02:52:30;21.67;;;10.45;;
41685;SDS011;27370;42.764;23.432;2022-08-25T02:54:55;26.70;;;11.48;;
41685;SDS011;27370;42.764;23.432;2022-08-25T02:57:21;22.10;;;11.00;;
41685;SDS011;27370;42.764;23.432;2022-08-25T02:59:46;26.40;;;12.30;;
41685;SDS011;27370;42.764;23.432;2022-08-25T03:02:13;26.75;;;11.48;;
41685;SDS011;27370;42.764;23.432;2022-08-25T03:04:39;23.30;;;11.40;;
41685;SDS011;27370;42.764;23.432;2022-08-25T03:07:05;22.85;;;11.20;;
41685;SDS011;27370;42.764;23.432;2022-08-25T03:09:30;25.45;;;11.70;;
41685;SDS011;27370;42.764;23.432;2022-08-25T03:11:56;25.23;;;11.35;;
41685;SDS011;27370;42.764;23.432;2022-08-25T03:14:21;25.58;;;11.75;;
41685;SDS011;27370;42.764;23.432;2022-08-25T03:16:47;25.85;;;11.02;;
41685;SDS011;27370;42.764;23.432;2022-08-25T03:19:13;26.08;;;11.50;;
41685;SDS011;27370;42.764;23.432;2022-08-25T03:21:38;28.63;;;12.10;;
41685;SDS011;27370;42.764;23.432;2022-08-25T03:24:04;22.88;;;11.52;;
41685;SDS011;27370;42.764;23.432;2022-08-25T03:26:30;19.63;;;11.20;;
41685;SDS011;27370;42.764;23.432;2022-08-25T03:29:14;26.60;;;12.07;;
41685;SDS011;27370;42.764;23.432;2022-08-25T03:31:41;22.10;;;11.90;;
41685;SDS011;27370;42.764;23.432;2022-08-25T03:34:10;23.48;;;11.70;;
41685;SDS011;27370;42.764;23.432;2022-08-25T03:36:37;27.02;;;12.48;;
41685;SDS011;27370;42.764;23.432;2022-08-25T03:39:03;30.17;;;12.88;;
41685;SDS011;27370;42.764;23.432;2022-08-25T03:41:29;28.45;;;12.68;;
41685;SDS011;27370;42.764;23.432;2022-08-25T03:46:26;23.40;;;11.73;;
41685;SDS011;27370;42.764;23.432;2022-08-25T03:48:53;22.38;;;12.38;;
41685;SDS011;27370;42.764;23.432;2022-08-25T03:51:25;25.35;;;12.23;;
41685;SDS011;27370;42.764;23.432;2022-08-25T03:53:52;23.67;;;12.15;;
41685;SDS011;27370;42.764;23.432;2022-08-25T03:56:18;31.27;;;11.82;;
41685;SDS011;27370;42.764;23.432;2022-08-25T03:58:44;26.77;;;11.63;;
41685;SDS011;27370;42.764;23.432;2022-08-25T04:01:09;26.15;;;12.30;;
41685;SDS011;27370;42.764;23.432;2022-08-25T04:03:35;28.23;;;11.93;;
41685;SDS011;27370;42.764;23.432;2022-08-25T04:06:01;22.15;;;11.77;;
41685;SDS011;27370;42.764;23.432;2022-08-25T04:08:28;24.23;;;12.13;;
41685;SDS011;27370;42.764;23.432;2022-08-25T04:10:54;25.08;;;12.30;;
41685;SDS011;27370;42.764;23.432;2022-08-25T04:13:19;20.67;;;12.23;;
41685;SDS011;27370;42.764;23.432;2022-08-25T04:15:45;22.58;;;12.50;;
41685;SDS011;27370;42.764;23.432;2022-08-25T04:18:11;20.90;;;12.52;;
41685;SDS011;27370;42.764;23.432;2022-08-25T04:20:37;23.77;;;11.73;;
41685;SDS011;27370;42.764;23.432;2022-08-25T04:23:04;22.13;;;10.50;;
41685;SDS011;27370;42.764;23.432;2022-08-25T04:25:30;24.88;;;11.23;;
41685;SDS011;27370;42.764;23.432;2022-08-25T04:27:55;20.88;;;10.60;;
41685;SDS011;27370;42.764;23.432;2022-08-25T04:30:21;22.77;;;11.75;;
41685;SDS011;27370;42.764;23.432;2022-08-25T04:32:48;22.95;;;12.25;;
41685;SDS011;27370;42.764;23.432;2022-08-25T04:35:14;20.52;;;12.00;;
41685;SDS011;27370;42.764;23.432;2022-08-25T04:37:40;26.10;;;12.13;;
41685;SDS011;27370;42.764;23.432;2022-08-25T04:40:06;23.20;;;12.40;;
41685;SDS011;27370;42.764;23.432;2022-08-25T04:42:32;24.58;;;12.02;;
41685;SDS011;27370;42.764;23.432;2022-08-25T04:44:58;26.17;;;11.85;;
41685;SDS011;27370;42.764;23.432;2022-08-25T04:47:26;21.38;;;12.35;;
41685;SDS011;27370;42.764;23.432;2022-08-25T04:49:51;35.17;;;12.15;;
41685;SDS011;27370;42.764;23.432;2022-08-25T04:52:17;19.90;;;11.63;;
41685;SDS011;27370;42.764;23.432;2022-08-25T04:54:43;19.60;;;10.90;;
41685;SDS011;27370;42.764;23.432;2022-08-25T04:57:09;25.85;;;11.50;;
41685;SDS011;27370;42.764;23.432;2022-08-25T04:59:34;23.38;;;10.82;;
41685;SDS011;27370;42.764;23.432;2022-08-25T05:02:00;25.52;;;11.48;;
41685;SDS011;27370;42.764;23.432;2022-08-25T05:04:27;25.98;;;11.88;;
41685;SDS011;27370;42.764;23.432;2022-08-25T05:06:52;24.15;;;11.93;;
41685;SDS011;27370;42.764;23.432;2022-08-25T05:09:18;22.63;;;12.15;;
41685;SDS011;27370;42.764;23.432;2022-08-25T05:11:43;18.23;;;11.45;;
41685;SDS011;27370;42.764;23.432;2022-08-25T05:14:09;21.55;;;12.55;;
41685;SDS011;27370;42.764;23.432;2022-08-25T05:16:37;25.90;;;11.73;;
41685;SDS011;27370;42.764;23.432;2022-08-25T05:19:03;19.52;;;11.60;;
41685;SDS011;27370;42.764;23.432;2022-08-25T05:21:29;20.67;;;11.70;;
41685;SDS011;27370;42.764;23.432;2022-08-25T05:23:55;21.10;;;10.55;;
41685;SDS011;27370;42.764;23.432;2022-08-25T05:26:22;20.23;;;10.20;;
41685;SDS011;27370;42.764;23.432;2022-08-25T05:28:49;19.33;;;11.00;;
41685;SDS011;27370;42.764;23.432;2022-08-25T05:31:16;18.67;;;10.20;;
41685;SDS011;27370;42.764;23.432;2022-08-25T05:33:43;23.65;;;10.02;;
41685;SDS011;27370;42.764;23.432;2022-08-25T05:36:09;19.55;;;11.10;;
41685;SDS011;27370;42.764;23.432;2022-08-25T05:38:36;18.45;;;10.82;;
41685;SDS011;27370;42.764;23.432;2022-08-25T05:41:04;17.33;;;10.05;;
41685;SDS011;27370;42.764;23.432;2022-08-25T05:43:37;19.55;;;10.82;;
41685;SDS011;27370;42.764;23.432;2022-08-25T05:46:04;20.42;;;9.98;;
41685;SDS011;27370;42.764;23.432;2022-08-25T05:48:30;18.08;;;10.38;;
41685;SDS011;27370;42.764;23.432;2022-08-25T05:50:58;21.20;;;10.50;;
41685;SDS011;27370;42.764;23.432;2022-08-25T05:53:25;25.33;;;11.00;;
41685;SDS011;27370;42.764;23.432;2022-08-25T05:55:52;19.20;;;9.80;;
41685;SDS011;27370;42.764;23.432;2022-08-25T05:58:21;25.55;;;10.98;;
41685;SDS011;27370;42.764;23.432;2022-08-25T06:00:48;17.00;;;9.88;;
41685;SDS011;27370;42.764;23.432;2022-08-25T06:03:14;18.27;;;10.15;;
41685;SDS011;27370;42.764;23.432;2022-08-25T06:05:39;23.45;;;10.52;;
41685;SDS011;27370;42.764;23.432;2022-08-25T06:08:05;18.45;;;10.63;;
41685;SDS011;27370;42.764;23.432;2022-08-25T06:10:31;22.48;;;10.13;;
41685;SDS011;27370;42.764;23.432;2022-08-25T06:12:56;18.02;;;10.35;;
41685;SDS011;27370;42.764;23.432;2022-08-25T06:15:22;22.40;;;11.57;;
41685;SDS011;27370;42.764;23.432;2022-08-25T06:17:49;21.48;;;10.70;;
41685;SDS011;27370;42.764;23.432;2022-08-25T06:20:19;20.85;;;11.10;;
41685;SDS011;27370;42.764;23.432;2022-08-25T06:22:47;18.52;;;10.00;;
41685;SDS011;27370;42.764;23.432;2022-08-25T06:25:14;17.67;;;10.18;;
41685;SDS011;27370;42.764;23.432;2022-08-25T06:27:42;18.08;;;10.38;;
41685;SDS011;27370;42.764;23.432;2022-08-25T06:30:09;20.75;;;10.75;;
41685;SDS011;27370;42.764;23.432;2022-08-25T06:32:37;21.48;;;10.73;;
41685;SDS011;27370;42.764;23.432;2022-08-25T06:35:04;16.35;;;9.85;;
41685;SDS011;27370;42.764;23.432;2022-08-25T06:37:32;19.17;;;10.23;;
41685;SDS011;27370;42.764;23.432;2022-08-25T06:39:59;18.67;;;9.80;;
41685;SDS011;27370;42.764;23.432;2022-08-25T06:42:24;18.05;;;9.43;;
41685;SDS011;27370;42.764;23.432;2022-08-25T06:44:50;18.88;;;10.55;;
41685;SDS011;27370;42.764;23.432;2022-08-25T06:47:16;21.05;;;10.35;;
41685;SDS011;27370;42.764;23.432;2022-08-25T06:49:42;19.48;;;10.13;;
41685;SDS011;27370;42.764;23.432;2022-08-25T06:52:08;18.25;;;10.02;;
41685;SDS011;27370;42.764;23.432;2022-08-25T06:54:34;20.13;;;9.75;;
41685;SDS011;27370;42.764;23.432;2022-08-25T06:57:00;20.80;;;9.23;;
41685;SDS011;27370;42.764;23.432;2022-08-25T06:59:26;23.63;;;9.98;;
41685;SDS011;27370;42.764;23.432;2022-08-25T07:01:52;21.33;;;9.40;;
41685;SDS011;27370;42.764;23.432;2022-08-25T07:04:17;18.70;;;10.15;;
41685;SDS011;27370;42.764;23.432;2022-08-25T07:06:43;18.92;;;9.60;;
41685;SDS011;27370;42.764;23.432;2022-08-25T07:09:09;17.35;;;9.50;;
41685;SDS011;27370;42.764;23.432;2022-08-25T07:11:37;17.83;;;10.13;;
41685;SDS011;27370;42.764;23.432;2022-08-25T07:14:04;20.63;;;9.55;;
41685;SDS011;27370;42.764;23.432;2022-08-25T07:16:31;18.13;;;9.95;;
41685;SDS011;27370;42.764;23.432;2022-08-25T07:18:57;21.67;;;9.45;;
41685;SDS011;27370;42.764;23.432;2022-08-25T07:21:24;22.80;;;9.25;;
41685;SDS011;27370;42.764;23.432;2022-08-25T07:23:51;24.02;;;9.88;;
41685;SDS011;27370;42.764;23.432;2022-08-25T07:26:21;19.38;;;10.48;;
41685;SDS011;27370;42.764;23.432;2022-08-25T07:28:48;20.38;;;9.55;;
41685;SDS011;27370;42.764;23.432;2022-08-25T07:31:14;19.52;;;9.20;;
41685;SDS011;27370;42.764;23.432;2022-08-25T07:33:39;23.90;;;9.52;;
41685;SDS011;27370;42.764;23.432;2022-08-25T07:36:28;18.00;;;9.02;;
41685;SDS011;27370;42.764;23.432;2022-08-25T07:38:55;16.02;;;8.55;;
41685;SDS011;27370;42.764;23.432;2022-08-25T07:41:21;16.15;;;8.82;;
41685;SDS011;27370;42.764;23.432;2022-08-25T07:43:47;17.73;;;9.40;;
41685;SDS011;27370;42.764;23.432;2022-08-25T07:46:13;20.92;;;9.10;;
41685;SDS011;27370;42.764;23.432;2022-08-25T07:48:38;15.68;;;8.65;;
41685;SDS011;27370;42.764;23.432;2022-08-25T07:51:08;21.15;;;10.07;;
41685;SDS011;27370;42.764;23.432;2022-08-25T07:53:35;20.40;;;9.57;;
41685;SDS011;27370;42.764;23.432;2022-08-25T07:56:01;18.50;;;9.45;;
41685;SDS011;27370;42.764;23.432;2022-08-25T07:58:27;17.77;;;9.10;;
41685;SDS011;27370;42.764;23.432;2022-08-25T08:00:53;18.88;;;8.88;;
41685;SDS011;27370;42.764;23.432;2022-08-25T08:03:18;17.90;;;9.27;;
41685;SDS011;27370;42.764;23.432;2022-08-25T08:05:45;20.00;;;8.63;;
41685;SDS011;27370;42.764;23.432;2022-08-25T08:08:11;17.67;;;8.55;;
41685;SDS011;27370;42.764;23.432;2022-08-25T08:10:40;22.80;;;8.25;;
41685;SDS011;27370;42.764;23.432;2022-08-25T08:13:06;22.70;;;8.43;;
41685;SDS011;27370;42.764;23.432;2022-08-25T08:15:34;18.95;;;7.70;;
41685;SDS011;27370;42.764;23.432;2022-08-25T08:18:00;25.48;;;8.20;;
41685;SDS011;27370;42.764;23.432;2022-08-25T08:20:26;26.95;;;7.95;;
41685;SDS011;27370;42.764;23.432;2022-08-25T08:22:53;20.42;;;7.20;;
41685;SDS011;27370;42.764;23.432;2022-08-25T08:25:19;23.13;;;7.93;;
41685;SDS011;27370;42.764;23.432;2022-08-25T08:27:44;18.48;;;7.03;;
41685;SDS011;27370;42.764;23.432;2022-08-25T08:30:11;24.60;;;8.07;;
41685;SDS011;27370;42.764;23.432;2022-08-25T08:32:37;19.75;;;7.03;;
41685;SDS011;27370;42.764;23.432;2022-08-25T08:35:03;22.27;;;7.45;;
41685;SDS011;27370;42.764;23.432;2022-08-25T08:37:30;19.13;;;6.85;;
41685;SDS011;27370;42.764;23.432;2022-08-25T08:39:56;19.42;;;7.15;;
41685;SDS011;27370;42.764;23.432;2022-08-25T08:48:11;21.55;;;6.40;;
41685;SDS011;27370;42.764;23.432;2022-08-25T08:50:50;17.48;;;6.18;;
41685;SDS011;27370;42.764;23.432;2022-08-25T08:53:26;19.75;;;6.90;;
41685;SDS011;27370;42.764;23.432;2022-08-25T08:56:04;25.25;;;6.45;;
41685;SDS011;27370;42.764;23.432;2022-08-25T09:01:29;21.85;;;5.68;;
41685;SDS011;27370;42.764;23.432;2022-08-25T09:04:01;19.77;;;5.70;;
41685;SDS011;27370;42.764;23.432;2022-08-25T09:06:37;18.95;;;6.40;;
41685;SDS011;27370;42.764;23.432;2022-08-25T09:09:06;22.08;;;4.20;;
41685;SDS011;27370;42.764;23.432;2022-08-25T09:31:02;26.02;;;4.80;;
41685;SDS011;27370;42.764;23.432;2022-08-25T09:33:30;28.47;;;4.70;;
41685;SDS011;27370;42.764;23.432;2022-08-25T09:35:58;24.75;;;4.75;;
41685;SDS011;27370;42.764;23.432;2022-08-25T09:38:25;23.38;;;4.00;;
41685;SDS011;27370;42.764;23.432;2022-08-25T09:40:54;21.92;;;4.40;;
41685;SDS011;27370;42.764;23.432;2022-08-25T09:48:33;22.77;;;4.57;;
41685;SDS011;27370;42.764;23.432;2022-08-25T09:51:13;23.42;;;4.80;;
41685;SDS011;27370;42.764;23.432;2022-08-25T09:53:56;27.77;;;5.25;;
41685;SDS011;27370;42.764;23.432;2022-08-25T10:01:50;26.35;;;4.47;;
41685;SDS011;27370;42.764;23.432;2022-08-25T10:04:38;24.15;;;4.53;;
41685;SDS011;27370;42.764;23.432;2022-08-25T10:07:06;22.52;;;5.10;;
41685;SDS011;27370;42.764;23.432;2022-08-25T10:09:52;24.80;;;4.35;;
41685;SDS011;27370;42.764;23.432;2022-08-25T10:12:29;19.85;;;4.18;;
41685;SDS011;27370;42.764;23.432;2022-08-25T10:15:21;24.25;;;4.50;;
41685;SDS011;27370;42.764;23.432;2022-08-25T10:17:50;21.63;;;4.18;;
41685;SDS011;27370;42.764;23.432;2022-08-25T10:20:21;23.70;;;4.43;;
41685;SDS011;27370;42.764;23.432;2022-08-25T10:22:48;19.85;;;3.97;;
41685;SDS011;27370;42.764;23.432;2022-08-25T10:25:15;24.38;;;4.32;;
41685;SDS011;27370;42.764;23.432;2022-08-25T10:28:05;18.33;;;3.72;;
41685;SDS011;27370;42.764;23.432;2022-08-25T10:33:34;22.77;;;4.45;;
41685;SDS011;27370;42.764;23.432;2022-08-25T10:36:22;23.15;;;4.88;;
41685;SDS011;27370;42.764;23.432;2022-08-25T10:39:22;17.95;;;3.88;;
41685;SDS011;27370;42.764;23.432;2022-08-25T10:42:10;20.05;;;4.43;;
41685;SDS011;27370;42.764;23.432;2022-08-25T10:50:46;20.52;;;4.10;;
41685;SDS011;27370;42.764;23.432;2022-08-25T11:01:17;23.17;;;4.22;;
41685;SDS011;27370;42.764;23.432;2022-08-25T11:03:56;20.55;;;4.38;;
41685;SDS011;27370;42.764;23.432;2022-08-25T11:09:09;20.70;;;4.30;;
41685;SDS011;27370;42.764;23.432;2022-08-25T11:11:39;29.55;;;4.30;;
41685;SDS011;27370;42.764;23.432;2022-08-25T11:14:14;23.70;;;4.18;;
41685;SDS011;27370;42.764;23.432;2022-08-25T11:16:42;20.80;;;4.57;;
41685;SDS011;27370;42.764;23.432;2022-08-25T11:19:23;25.45;;;4.72;;
41685;SDS011;27370;42.764;23.432;2022-08-25T11:24:41;18.40;;;4.03;;
41685;SDS011;27370;42.764;23.432;2022-08-25T11:27:21;22.13;;;4.47;;
41685;SDS011;27370;42.764;23.432;2022-08-25T11:29:56;25.70;;;3.72;;
41685;SDS011;27370;42.764;23.432;2022-08-25T11:32:27;24.33;;;4.18;;
41685;SDS011;27370;42.764;23.432;2022-08-25T11:34:59;15.23;;;4.15;;
41685;SDS011;27370;42.764;23.432;2022-08-25T11:37:30;19.42;;;3.60;;
41685;SDS011;27370;42.764;23.432;2022-08-25T11:40:07;17.77;;;4.13;;
41685;SDS011;27370;42.764;23.432;2022-08-25T11:51:02;18.60;;;4.30;;
41685;SDS011;27370;42.764;23.432;2022-08-25T11:53:37;16.00;;;3.20;;
41685;SDS011;27370;42.764;23.432;2022-08-25T11:56:06;19.77;;;3.38;;
41685;SDS011;27370;42.764;23.432;2022-08-25T12:01:58;17.02;;;3.50;;
41685;SDS011;27370;42.764;23.432;2022-08-25T12:09:33;16.33;;;3.53;;
41685;SDS011;27370;42.764;23.432;2022-08-25T12:12:37;17.13;;;3.67;;
41685;SDS011;27370;42.764;23.432;2022-08-25T12:15:13;14.95;;;3.58;;
41685;SDS011;27370;42.764;23.432;2022-08-25T12:17:44;18.42;;;3.78;;
41685;SDS011;27370;42.764;23.432;2022-08-25T12:20:09;15.00;;;3.30;;
41685;SDS011;27370;42.764;23.432;2022-08-25T12:25:07;16.35;;;3.60;;
41685;SDS011;27370;42.764;23.432;2022-08-25T12:35:53;17.90;;;3.83;;
41685;SDS011;27370;42.764;23.432;2022-08-25T12:40:59;22.35;;;4.00;;
41685;SDS011;27370;42.764;23.432;2022-08-25T12:43:34;62.22;;;6.38;;
41685;SDS011;27370;42.764;23.432;2022-08-25T12:51:55;15.52;;;3.70;;
41685;SDS011;27370;42.764;23.432;2022-08-25T12:57:02;38.38;;;4.20;;
41685;SDS011;27370;42.764;23.432;2022-08-25T12:59:41;15.45;;;3.83;;
41685;SDS011;27370;42.764;23.432;2022-08-25T13:11:08;15.73;;;3.72;;
41685;SDS011;27370;42.764;23.432;2022-08-25T13:16:03;18.65;;;3.50;;
41685;SDS011;27370;42.764;23.432;2022-08-25T13:18:33;23.33;;;4.25;;
41685;SDS011;27370;42.764;23.432;2022-08-25T13:23:41;14.90;;;3.80;;
41685;SDS011;27370;42.764;23.432;2022-08-25T13:26:13;19.15;;;4.03;;
41685;SDS011;27370;42.764;23.432;2022-08-25T13:28:41;26.70;;;4.00;;
41685;SDS011;27370;42.764;23.432;2022-08-25T13:31:14;22.58;;;4.35;;
41685;SDS011;27370;42.764;23.432;2022-08-25T13:33:50;17.95;;;4.32;;
41685;SDS011;27370;42.764;23.432;2022-08-25T13:36:17;26.23;;;3.60;;
41685;SDS011;27370;42.764;23.432;2022-08-25T13:39:12;20.55;;;4.10;;
41685;SDS011;27370;42.764;23.432;2022-08-25T13:41:44;19.02;;;4.25;;
41685;SDS011;27370;42.764;23.432;2022-08-25T13:44:17;22.98;;;4.00;;
41685;SDS011;27370;42.764;23.432;2022-08-25T13:46:45;21.75;;;4.35;;
41685;SDS011;27370;42.764;23.432;2022-08-25T13:49:12;25.20;;;3.85;;
41685;SDS011;27370;42.764;23.432;2022-08-25T13:51:50;19.02;;;4.00;;
41685;SDS011;27370;42.764;23.432;2022-08-25T13:54:26;20.05;;;3.95;;
41685;SDS011;27370;42.764;23.432;2022-08-25T13:56:53;20.27;;;3.70;;
41685;SDS011;27370;42.764;23.432;2022-08-25T13:59:33;16.33;;;4.25;;
41685;SDS011;27370;42.764;23.432;2022-08-25T14:02:03;19.08;;;3.25;;
41685;SDS011;27370;42.764;23.432;2022-08-25T14:04:30;21.75;;;3.80;;
41685;SDS011;27370;42.764;23.432;2022-08-25T14:09:51;17.88;;;3.75;;
41685;SDS011;27370;42.764;23.432;2022-08-25T14:14:58;15.68;;;3.53;;
41685;SDS011;27370;42.764;23.432;2022-08-25T14:17:29;16.50;;;3.78;;
41685;SDS011;27370;42.764;23.432;2022-08-25T14:19:55;19.88;;;3.95;;
41685;SDS011;27370;42.764;23.432;2022-08-25T14:22:21;17.42;;;4.00;;
41685;SDS011;27370;42.764;23.432;2022-08-25T14:24:47;19.45;;;3.45;;
41685;SDS011;27370;42.764;23.432;2022-08-25T14:27:13;22.85;;;3.72;;
41685;SDS011;27370;42.764;23.432;2022-08-25T14:29:38;22.42;;;4.07;;
41685;SDS011;27370;42.764;23.432;2022-08-25T14:32:04;15.90;;;3.47;;
41685;SDS011;27370;42.764;23.432;2022-08-25T14:34:31;25.42;;;4.22;;
41685;SDS011;27370;42.764;23.432;2022-08-25T14:37:01;21.80;;;4.13;;
41685;SDS011;27370;42.764;23.432;2022-08-25T14:39:33;20.23;;;3.97;;
41685;SDS011;27370;42.764;23.432;2022-08-25T14:41:59;18.38;;;4.28;;
41685;SDS011;27370;42.764;23.432;2022-08-25T14:44:24;23.75;;;3.88;;
41685;SDS011;27370;42.764;23.432;2022-08-25T14:46:51;25.58;;;3.95;;
41685;SDS011;27370;42.764;23.432;2022-08-25T14:49:19;21.08;;;3.88;;
41685;SDS011;27370;42.764;23.432;2022-08-25T14:51:51;15.07;;;3.60;;
41685;SDS011;27370;42.764;23.432;2022-08-25T14:54:17;18.70;;;3.72;;
41685;SDS011;27370;42.764;23.432;2022-08-25T14:56:45;16.00;;;3.78;;
41685;SDS011;27370;42.764;23.432;2022-08-25T14:59:14;19.08;;;4.13;;
41685;SDS011;27370;42.764;23.432;2022-08-25T15:01:40;26.05;;;4.50;;
41685;SDS011;27370;42.764;23.432;2022-08-25T15:04:08;21.15;;;3.58;;
41685;SDS011;27370;42.764;23.432;2022-08-25T15:06:37;19.27;;;4.47;;
41685;SDS011;27370;42.764;23.432;2022-08-25T15:09:04;16.67;;;3.65;;
41685;SDS011;27370;42.764;23.432;2022-08-25T15:11:35;18.77;;;3.70;;
41685;SDS011;27370;42.764;23.432;2022-08-25T15:14:06;14.70;;;3.75;;
41685;SDS011;27370;42.764;23.432;2022-08-25T15:16:35;17.80;;;4.00;;
41685;SDS011;27370;42.764;23.432;2022-08-25T15:19:04;18.88;;;4.13;;
41685;SDS011;27370;42.764;23.432;2022-08-25T15:21:36;18.20;;;3.75;;
41685;SDS011;27370;42.764;23.432;2022-08-25T15:24:03;24.98;;;4.53;;
41685;SDS011;27370;42.764;23.432;2022-08-25T15:26:29;23.55;;;4.30;;
41685;SDS011;27370;42.764;23.432;2022-08-25T15:28:55;25.45;;;4.18;;
41685;SDS011;27370;42.764;23.432;2022-08-25T15:31:20;21.10;;;4.13;;
41685;SDS011;27370;42.764;23.432;2022-08-25T15:33:47;16.95;;;3.70;;
41685;SDS011;27370;42.764;23.432;2022-08-25T15:36:14;18.30;;;4.38;;
41685;SDS011;27370;42.764;23.432;2022-08-25T15:38:41;22.75;;;4.22;;
41685;SDS011;27370;42.764;23.432;2022-08-25T15:41:08;15.10;;;4.05;;
41685;SDS011;27370;42.764;23.432;2022-08-25T15:43:36;18.08;;;4.10;;
41685;SDS011;27370;42.764;23.432;2022-08-25T15:46:02;13.48;;;3.67;;
41685;SDS011;27370;42.764;23.432;2022-08-25T15:48:29;23.08;;;3.97;;
41685;SDS011;27370;42.764;23.432;2022-08-25T15:50:56;17.83;;;4.00;;
41685;SDS011;27370;42.764;23.432;2022-08-25T15:53:25;21.17;;;4.97;;
41685;SDS011;27370;42.764;23.432;2022-08-25T15:55:51;19.20;;;4.85;;
41685;SDS011;27370;42.764;23.432;2022-08-25T15:58:17;17.85;;;4.50;;
41685;SDS011;27370;42.764;23.432;2022-08-25T16:00:43;21.38;;;5.05;;
41685;SDS011;27370;42.764;23.432;2022-08-25T16:03:09;16.70;;;4.22;;
41685;SDS011;27370;42.764;23.432;2022-08-25T16:05:36;20.98;;;4.45;;
41685;SDS011;27370;42.764;23.432;2022-08-25T16:08:03;21.95;;;4.50;;
41685;SDS011;27370;42.764;23.432;2022-08-25T16:10:32;21.83;;;4.80;;
41685;SDS011;27370;42.764;23.432;2022-08-25T16:12:58;20.63;;;4.32;;
41685;SDS011;27370;42.764;23.432;2022-08-25T16:15:23;18.65;;;3.92;;
41685;SDS011;27370;42.764;23.432;2022-08-25T16:17:49;16.40;;;4.25;;
41685;SDS011;27370;42.764;23.432;2022-08-25T16:20:14;20.92;;;4.13;;
41685;SDS011;27370;42.764;23.432;2022-08-25T16:22:40;18.10;;;3.83;;
41685;SDS011;27370;42.764;23.432;2022-08-25T16:25:09;19.95;;;4.10;;
41685;SDS011;27370;42.764;23.432;2022-08-25T16:27:34;23.50;;;4.50;;
41685;SDS011;27370;42.764;23.432;2022-08-25T16:30:00;20.90;;;3.97;;